createdAt,value
2022-08-26T00:02:11.829Z,99778.94
2022-08-26T00:04:40.290Z,99775.88
2022-08-26T00:07:08.292Z,99774.03
2022-08-26T00:09:37.236Z,99775.00
2022-08-26T00:12:07.437Z,99772.00
2022-08-26T00:14:36.619Z,99769.34
2022-08-26T00:17:04.648Z,99769.44
2022-08-26T00:19:32.865Z,99748.00
2022-08-26T00:22:00.856Z,99757.31
2022-08-26T00:24:28.436Z,99761.25
2022-08-26T00:26:56.348Z,99760.91
2022-08-26T00:29:23.913Z,99747.78
2022-08-26T00:31:51.519Z,99762.56
2022-08-26T00:34:19.698Z,99748.66
2022-08-26T00:36:51.734Z,99749.50
2022-08-26T00:39:21.109Z,99744.94
2022-08-26T00:41:48.776Z,99752.78
2022-08-26T00:44:17.049Z,99753.13
2022-08-26T00:46:50.801Z,99756.81
2022-08-26T00:49:29.499Z,99754.50
2022-08-26T00:52:00.976Z,99746.06
2022-08-26T00:54:32.660Z,99743.00
2022-08-26T00:57:15.827Z,99748.47
2022-08-26T00:59:56.828Z,99741.91
2022-08-26T01:02:25.722Z,99739.28
2022-08-26T01:04:58.827Z,99746.69
2022-08-26T01:07:31.205Z,99747.56
2022-08-26T01:10:07.528Z,99740.56
2022-08-26T01:12:47.987Z,99738.69
2022-08-26T01:15:51.882Z,99741.00
2022-08-26T01:18:21.648Z,99734.88
2022-08-26T01:21:07.014Z,99740.22
2022-08-26T01:23:45.178Z,99741.75
2022-08-26T01:26:50.340Z,99735.75
2022-08-26T01:29:20.098Z,99740.69
2022-08-26T01:31:55.494Z,99740.69
2022-08-26T01:34:25.332Z,99736.44
2022-08-26T01:37:19.786Z,99747.69
2022-08-26T01:39:53.809Z,99736.97
2022-08-26T01:42:24.814Z,99737.16
2022-08-26T01:45:05.424Z,99737.16
2022-08-26T01:47:36.641Z,99729.50
2022-08-26T01:50:27.808Z,99731.00
2022-08-26T01:53:01.739Z,99724.78
2022-08-26T01:55:32.963Z,99722.50
2022-08-26T01:58:10.445Z,99729.41
2022-08-26T02:00:40.919Z,99728.81
2022-08-26T02:03:18.414Z,99733.50
2022-08-26T02:06:00.631Z,99734.38
2022-08-26T02:08:37.565Z,99733.59
2022-08-26T02:11:05.705Z,99742.13
2022-08-26T02:13:40.290Z,99727.28
2022-08-26T02:16:09.271Z,99746.41
2022-08-26T02:18:40.261Z,99736.25
2022-08-26T02:21:09.736Z,99728.16
2022-08-26T02:23:38.737Z,99726.06
2022-08-26T02:26:16.323Z,99728.47
2022-08-26T02:29:02.648Z,99735.31
2022-08-26T02:31:30.309Z,99734.13
2022-08-26T02:34:21.695Z,99732.50
2022-08-26T02:36:49.845Z,99725.94
2022-08-26T02:39:22.316Z,99723.72
2022-08-26T02:41:50.319Z,99727.22
2022-08-26T02:44:18.820Z,99727.28
2022-08-26T02:46:47.384Z,99721.75
2022-08-26T02:49:17.218Z,99726.59
2022-08-26T02:51:45.720Z,99727.81
2022-08-26T02:54:14.035Z,99728.16
2022-08-26T02:56:42.471Z,99725.66
2022-08-26T02:59:12.647Z,99721.97
2022-08-26T03:01:41.159Z,99727.66
2022-08-26T03:04:12.524Z,99719.03
2022-08-26T03:06:40.672Z,99721.44
2022-08-26T03:09:09.802Z,99725.34
2022-08-26T03:11:41.699Z,99728.50
2022-08-26T03:14:09.215Z,99738.34
2022-08-26T03:16:38.135Z,99739.63
2022-08-26T03:19:09.637Z,99732.41
2022-08-26T03:21:39.534Z,99727.81
2022-08-26T03:24:10.732Z,99732.16
2022-08-26T03:26:38.742Z,99732.59
2022-08-26T03:29:25.508Z,99730.53
2022-08-26T03:31:54.259Z,99726.06
2022-08-26T03:34:22.643Z,99743.06
2022-08-26T03:36:50.425Z,99737.06
2022-08-26T03:39:18.305Z,99740.13
2022-08-26T03:41:45.957Z,99739.69
2022-08-26T03:44:14.639Z,99742.34
2022-08-26T03:46:42.467Z,99740.78
2022-08-26T03:49:11.491Z,99737.81
2022-08-26T03:51:39.871Z,99742.69
2022-08-26T03:54:10.761Z,99746.75
2022-08-26T03:56:39.200Z,99737.44
2022-08-26T03:59:08.099Z,99742.47
2022-08-26T04:01:36.516Z,99742.78
2022-08-26T04:04:04.597Z,99739.22
2022-08-26T04:06:45.185Z,99733.97
2022-08-26T04:09:20.323Z,99735.44
2022-08-26T04:11:50.397Z,99732.25
2022-08-26T04:14:22.501Z,99738.06
2022-08-26T04:16:51.774Z,99738.84
2022-08-26T04:19:21.422Z,99733.81
2022-08-26T04:21:53.803Z,99740.38
2022-08-26T04:24:25.692Z,99741.41
2022-08-26T04:26:53.886Z,99746.66
2022-08-26T04:29:25.395Z,99745.09
2022-08-26T04:31:55.761Z,99750.66
2022-08-26T04:34:27.179Z,99738.38
2022-08-26T04:36:58.084Z,99754.00
2022-08-26T04:39:27.779Z,99745.81
2022-08-26T04:41:55.928Z,99754.69
2022-08-26T04:44:29.522Z,99758.53
2022-08-26T04:46:58.609Z,99758.84
2022-08-26T04:49:27.663Z,99747.59
2022-08-26T04:51:55.384Z,99747.50
2022-08-26T04:54:23.527Z,99745.88
2022-08-26T04:56:53.310Z,99752.00
2022-08-26T04:59:20.922Z,99744.47
2022-08-26T05:01:52.700Z,99751.50
2022-08-26T05:04:21.319Z,99744.06
2022-08-26T05:06:50.885Z,99746.34
2022-08-26T05:09:20.194Z,99736.97
2022-08-26T05:11:51.926Z,99739.19
2022-08-26T05:14:23.268Z,99740.16
2022-08-26T05:16:52.300Z,99737.25
2022-08-26T05:19:19.937Z,99741.06
2022-08-26T05:21:49.332Z,99736.38
2022-08-26T05:24:18.106Z,99740.97
2022-08-26T05:26:47.253Z,99735.84
2022-08-26T05:29:16.808Z,99729.84
2022-08-26T05:31:44.686Z,99730.03
2022-08-26T05:34:12.665Z,99740.97
2022-08-26T05:36:40.222Z,99734.66
2022-08-26T05:39:10.449Z,99739.09
2022-08-26T05:41:41.339Z,99738.78
2022-08-26T05:44:13.937Z,99737.91
2022-08-26T05:46:44.675Z,99736.50
2022-08-26T05:49:15.891Z,99739.03
2022-08-26T05:51:46.467Z,99742.81
2022-08-26T05:54:21.344Z,99747.22
2022-08-26T05:56:51.788Z,99749.59
2022-08-26T05:59:23.925Z,99753.53
2022-08-26T06:01:54.999Z,99747.41
2022-08-26T06:04:27.508Z,99745.34
2022-08-26T06:06:58.602Z,99745.88
2022-08-26T06:09:27.395Z,99746.03
2022-08-26T06:11:56.541Z,99748.75
2022-08-26T06:14:25.961Z,99747.66
2022-08-26T06:16:54.446Z,99749.31
2022-08-26T06:19:22.584Z,99752.47
2022-08-26T06:21:54.642Z,99750.94
2022-08-26T06:25:01.545Z,99755.97
2022-08-26T06:27:32.596Z,99756.25
2022-08-26T06:30:00.826Z,99745.06
2022-08-26T06:32:28.390Z,99754.13
2022-08-26T06:34:56.953Z,99754.66
2022-08-26T06:37:25.237Z,99755.75
2022-08-26T06:39:52.929Z,99755.41
2022-08-26T06:42:22.444Z,99753.91
2022-08-26T06:44:51.312Z,99754.66
2022-08-26T06:47:18.904Z,99756.84
2022-08-26T06:49:46.456Z,99754.19
2022-08-26T06:52:14.246Z,99750.00
2022-08-26T06:54:47.696Z,99761.38
2022-08-26T06:57:16.704Z,99755.91
2022-08-26T06:59:44.416Z,99755.13
2022-08-26T07:02:13.538Z,99763.56
2022-08-26T07:04:42.129Z,99762.13
2022-08-26T07:07:14.913Z,99766.13
2022-08-26T07:09:42.843Z,99768.22
2022-08-26T07:12:10.506Z,99766.41
2022-08-26T07:14:38.629Z,99770.13
2022-08-26T07:17:11.086Z,99766.00
2022-08-26T07:19:41.379Z,99764.25
2022-08-26T07:22:09.136Z,99771.31
2022-08-26T07:24:42.887Z,99767.94
2022-08-26T07:27:15.518Z,99774.94
2022-08-26T07:29:44.818Z,99766.59
2022-08-26T07:32:18.320Z,99758.13
2022-08-26T07:34:45.984Z,99758.28
2022-08-26T07:37:14.220Z,99759.94
2022-08-26T07:39:43.227Z,99750.06
2022-08-26T07:42:14.146Z,99756.97
2022-08-26T07:44:43.138Z,99758.59
2022-08-26T07:47:24.880Z,99755.00
2022-08-26T07:49:57.419Z,99748.91
2022-08-26T07:52:29.187Z,99753.50
2022-08-26T07:55:00.611Z,99759.63
2022-08-26T07:57:30.437Z,99761.34
2022-08-26T07:59:59.520Z,99748.13
2022-08-26T08:02:28.530Z,99752.69
2022-08-26T08:04:59.714Z,99751.78
2022-08-26T08:07:44.590Z,99757.91
2022-08-26T08:10:22.514Z,99758.22
2022-08-26T08:12:54.025Z,99744.97
2022-08-26T08:15:26.623Z,99748.16
2022-08-26T08:17:58.870Z,99740.50
2022-08-26T08:20:29.575Z,99747.53
2022-08-26T08:22:57.752Z,99741.16
2022-08-26T08:25:25.425Z,99742.41
2022-08-26T08:27:53.080Z,99754.75
2022-08-26T08:30:23.309Z,99739.97
2022-08-26T08:32:52.356Z,99741.53
2022-08-26T08:35:22.471Z,99743.38
2022-08-26T08:37:54.342Z,99741.84
2022-08-26T08:40:26.130Z,99745.84
2022-08-26T08:43:06.181Z,99740.34
2022-08-26T08:45:39.909Z,99740.66
2022-08-26T08:48:32.716Z,99734.56
2022-08-26T08:51:27.887Z,99735.63
2022-08-26T08:53:57.246Z,99744.22
2022-08-26T08:56:53.094Z,99750.31
2022-08-26T08:59:31.431Z,99742.06
2022-08-26T09:02:25.681Z,99738.56
2022-08-26T09:05:17.442Z,99736.44
2022-08-26T09:08:23.608Z,99736.56
2022-08-26T09:10:57.348Z,99726.78
2022-08-26T09:13:27.347Z,99720.22
2022-08-26T09:16:16.354Z,99733.34
2022-08-26T09:19:19.064Z,99730.91
2022-08-26T09:21:55.757Z,99716.69
2022-08-26T09:24:28.405Z,99718.66
2022-08-26T09:26:59.160Z,99720.06
2022-08-26T09:29:40.977Z,99713.13
2022-08-26T09:32:25.035Z,99719.56
2022-08-26T09:35:01.129Z,99714.09
2022-08-26T09:37:40.150Z,99714.84
2022-08-26T09:40:27.003Z,99707.38
2022-08-26T09:43:22.028Z,99717.75
2022-08-26T09:45:59.052Z,99706.44
2022-08-26T09:48:41.174Z,99710.69
2022-08-26T09:51:24.280Z,99699.53
2022-08-26T09:54:02.452Z,99696.47
2022-08-26T09:56:38.496Z,99699.31
2022-08-26T09:59:11.512Z,99693.19
2022-08-26T10:01:45.011Z,99701.88
2022-08-26T10:04:24.366Z,99692.63
2022-08-26T10:07:00.631Z,99687.22
2022-08-26T10:09:34.083Z,99709.50
2022-08-26T10:12:10.801Z,99690.38
2022-08-26T10:15:00.844Z,99682.25
2022-08-26T10:18:11.542Z,99679.31
2022-08-26T10:20:57.794Z,99675.94
2022-08-26T10:23:31.007Z,99680.31
2022-08-26T10:26:11.936Z,99672.91
2022-08-26T10:28:54.141Z,99681.13
2022-08-26T10:32:02.662Z,99679.03
2022-08-26T10:34:34.837Z,99686.69
2022-08-26T10:37:16.802Z,99674.50
2022-08-26T10:39:57.269Z,99680.53
2022-08-26T10:42:48.205Z,99669.91
2022-08-26T10:45:22.161Z,99664.50
2022-08-26T10:48:02.051Z,99665.94
2022-08-26T10:50:43.980Z,99659.34
2022-08-26T10:53:36.516Z,99667.53
2022-08-26T10:57:00.133Z,99656.19
2022-08-26T10:59:57.741Z,99658.97
2022-08-26T11:02:48.233Z,99645.31
2022-08-26T11:05:23.484Z,99656.50
2022-08-26T11:08:34.257Z,99644.19
2022-08-26T11:11:03.070Z,99643.84
2022-08-26T11:14:01.427Z,99638.28
2022-08-26T11:16:43.321Z,99639.16
2022-08-26T11:20:01.036Z,99646.72
2022-08-26T11:22:47.387Z,99645.28
2022-08-26T11:25:29.986Z,99638.13
2022-08-26T11:28:00.577Z,99646.38
2022-08-26T11:30:42.759Z,99641.38
2022-08-26T11:33:31.584Z,99634.66
2022-08-26T11:35:59.297Z,99639.09
2022-08-26T11:38:30.830Z,99630.09
2022-08-26T11:41:17.555Z,99635.66
2022-08-26T11:43:50.398Z,99629.13
2022-08-26T11:46:27.435Z,99631.44
2022-08-26T11:49:07.507Z,99633.47
2022-08-26T11:51:40.199Z,99621.19
2022-08-26T11:54:34.512Z,99612.47
2022-08-26T11:57:11.603Z,99623.06
2022-08-26T11:59:42.365Z,99608.69
2022-08-26T12:02:17.926Z,99604.09
2022-08-26T12:04:50.842Z,99603.38
2022-08-26T12:07:27.680Z,99601.13
2022-08-26T12:10:04.677Z,99602.16
2022-08-26T12:12:38.644Z,99597.41
2022-08-26T12:15:10.699Z,99607.22
2022-08-26T12:17:42.255Z,99590.06
2022-08-26T12:20:46.572Z,99581.19
2022-08-26T12:23:49.952Z,99579.09
2022-08-26T12:26:36.949Z,99575.47
2022-08-26T12:29:26.665Z,99563.56
2022-08-26T12:32:13.498Z,99569.59
2022-08-26T12:34:47.373Z,99554.44
2022-08-26T12:37:16.284Z,99544.56
2022-08-26T12:39:47.993Z,99547.72
2022-08-26T12:42:16.022Z,99549.81
2022-08-26T12:44:53.312Z,99548.06
2022-08-26T12:47:42.507Z,99543.53
2022-08-26T12:50:30.960Z,99543.47
2022-08-26T12:53:10.119Z,99541.59
2022-08-26T12:55:52.806Z,99545.13
2022-08-26T12:58:34.172Z,99534.69
2022-08-26T13:01:05.194Z,99536.53
2022-08-26T13:03:43.632Z,99532.75
2022-08-26T13:06:20.736Z,99531.50
2022-08-26T13:08:55.676Z,99515.09
2022-08-26T13:11:46.855Z,99522.63
2022-08-26T13:14:21.036Z,99533.94
2022-08-26T13:16:53.185Z,99529.78
2022-08-26T13:19:25.909Z,99521.81
2022-08-26T13:21:57.441Z,99523.09
2022-08-26T13:24:43.709Z,99529.09
2022-08-26T13:27:15.345Z,99524.16
2022-08-26T13:29:43.371Z,99519.50
2022-08-26T13:32:11.007Z,99517.16
2022-08-26T13:34:39.102Z,99512.03
2022-08-26T13:37:07.155Z,99505.13
2022-08-26T13:39:34.936Z,99500.84
2022-08-26T13:42:09.076Z,99504.34
2022-08-26T13:44:40.628Z,99499.31
2022-08-26T13:47:09.123Z,99500.31
2022-08-26T13:49:36.977Z,99507.69
2022-08-26T13:52:04.801Z,99503.13
2022-08-26T13:54:33.380Z,99500.31
2022-08-26T13:57:00.869Z,99497.31
2022-08-26T13:59:28.712Z,99502.59
2022-08-26T14:01:58.488Z,99508.16
2022-08-26T14:04:27.532Z,99503.88
2022-08-26T14:06:55.697Z,99497.47
2022-08-26T14:09:23.835Z,99501.53
2022-08-26T14:11:54.889Z,99497.25
2022-08-26T14:14:23.168Z,99505.56
2022-08-26T14:16:59.315Z,99495.22
2022-08-26T14:19:30.164Z,99490.28
2022-08-26T14:22:00.797Z,99488.47
2022-08-26T14:24:29.121Z,99488.38
2022-08-26T14:26:56.759Z,99491.63
2022-08-26T14:29:24.748Z,99490.47
2022-08-26T14:31:52.782Z,99487.66
2022-08-26T14:34:20.373Z,99489.16
2022-08-26T14:36:48.369Z,99481.38
2022-08-26T14:39:15.938Z,99492.00
2022-08-26T14:41:54.983Z,99489.28
2022-08-26T14:44:28.690Z,99481.72
2022-08-26T14:46:57.368Z,99479.81
2022-08-26T14:49:27.239Z,99477.69
2022-08-26T14:51:55.541Z,99482.38
2022-08-26T14:54:23.278Z,99479.19
2022-08-26T14:57:03.556Z,99471.22
2022-08-26T14:59:38.358Z,99473.66
2022-08-26T15:02:09.059Z,99472.34
2022-08-26T15:04:41.886Z,99467.00
2022-08-26T15:07:09.766Z,99466.09
2022-08-26T15:09:40.543Z,99468.94
2022-08-26T15:12:08.308Z,99464.09
2022-08-26T15:14:36.144Z,99462.13
2022-08-26T15:17:04.696Z,99461.13
2022-08-26T15:19:32.195Z,99463.00
2022-08-26T15:22:00.309Z,99452.72
2022-08-26T15:24:28.910Z,99461.94
2022-08-26T15:26:56.583Z,99460.31
2022-08-26T15:29:24.478Z,99458.28
2022-08-26T15:31:55.263Z,99452.91
2022-08-26T15:34:25.598Z,99447.31
2022-08-26T15:36:53.404Z,99446.03
2022-08-26T15:39:21.075Z,99452.53
2022-08-26T15:41:49.023Z,99442.97
2022-08-26T15:44:17.705Z,99442.84
2022-08-26T15:46:45.673Z,99439.56
2022-08-26T15:49:16.959Z,99443.81
2022-08-26T15:51:50.351Z,99443.31
2022-08-26T15:54:23.026Z,99438.84
2022-08-26T15:56:53.038Z,99439.28
2022-08-26T15:59:22.739Z,99440.50
2022-08-26T16:01:51.763Z,99443.09
2022-08-26T16:04:20.263Z,99439.91
2022-08-26T16:06:51.504Z,99434.97
2022-08-26T16:09:26.925Z,99423.72
2022-08-26T16:11:58.802Z,99429.59
2022-08-26T16:14:26.751Z,99421.84
2022-08-26T16:16:54.168Z,99430.63
2022-08-26T16:19:22.354Z,99426.91
2022-08-26T16:21:51.511Z,99426.63
2022-08-26T16:24:24.792Z,99436.53
2022-08-26T16:26:55.464Z,99441.63
2022-08-26T16:29:24.067Z,99437.66
2022-08-26T16:31:53.359Z,99434.41
2022-08-26T16:34:21.971Z,99433.75
2022-08-26T16:36:49.704Z,99430.47
2022-08-26T16:39:17.284Z,99432.09
2022-08-26T16:41:45.147Z,99436.13
2022-08-26T16:44:12.755Z,99442.81
2022-08-26T16:46:41.173Z,99439.22
2022-08-26T16:49:09.041Z,99440.25
2022-08-26T16:51:37.842Z,99442.09
2022-08-26T16:54:07.737Z,99449.75
2022-08-26T16:56:36.902Z,99446.03
2022-08-26T16:59:06.901Z,99447.56
2022-08-26T17:01:34.520Z,99446.53
2022-08-26T17:04:02.517Z,99444.41
2022-08-26T17:06:30.186Z,99449.84
2022-08-26T17:08:58.351Z,99438.81
2022-08-26T17:11:26.045Z,99452.06
2022-08-26T17:13:53.711Z,99446.16
2022-08-26T17:16:26.393Z,99449.22
2022-08-26T17:18:56.870Z,99447.75
2022-08-26T17:21:26.960Z,99452.56
2022-08-26T17:23:56.363Z,99451.88
2022-08-26T17:26:24.072Z,99450.63
2022-08-26T17:28:52.339Z,99447.41
2022-08-26T17:31:21.033Z,99451.56
2022-08-26T17:33:53.419Z,99457.72
2022-08-26T17:36:27.456Z,99455.50
2022-08-26T17:38:57.691Z,99457.84
2022-08-26T17:41:26.902Z,99456.31
2022-08-26T17:43:55.297Z,99453.69
2022-08-26T17:46:24.239Z,99459.28
2022-08-26T17:48:52.097Z,99454.84
2022-08-26T17:51:19.927Z,99457.41
2022-08-26T17:53:48.966Z,99464.56
2022-08-26T17:56:21.173Z,99464.56
2022-08-26T17:58:53.974Z,99466.38
2022-08-26T18:01:26.125Z,99468.63
2022-08-26T18:04:00.111Z,99460.25
2022-08-26T18:06:30.595Z,99467.63
2022-08-26T18:09:00.074Z,99473.50
2022-08-26T18:11:29.346Z,99471.41
2022-08-26T18:13:58.166Z,99467.81
2022-08-26T18:16:26.801Z,99467.84
2022-08-26T18:18:55.078Z,99468.47
2022-08-26T18:21:27.661Z,99472.66
2022-08-26T18:23:56.491Z,99469.78
2022-08-26T18:26:35.428Z,99477.00
2022-08-26T18:29:04.164Z,99480.38
2022-08-26T18:31:33.034Z,99486.81
2022-08-26T18:34:02.199Z,99479.97
2022-08-26T18:36:42.494Z,99477.84
2022-08-26T18:39:12.722Z,99476.97
2022-08-26T18:41:48.734Z,99482.63
2022-08-26T18:44:19.204Z,99484.63
2022-08-26T18:46:47.553Z,99495.91
2022-08-26T18:49:17.264Z,99489.13
2022-08-26T18:51:46.780Z,99490.94
2022-08-26T18:54:15.733Z,99494.75
2022-08-26T18:56:43.945Z,99495.81
2022-08-26T18:59:12.943Z,99492.94
2022-08-26T19:01:42.401Z,99493.84
2022-08-26T19:04:13.061Z,99494.78
2022-08-26T19:06:47.336Z,99493.75
2022-08-26T19:09:17.321Z,99492.63
2022-08-26T19:11:46.401Z,99491.59
2022-08-26T19:14:16.199Z,99492.81
2022-08-26T19:16:47.358Z,99493.56
2022-08-26T19:19:16.573Z,99492.97
2022-08-26T19:21:44.289Z,99496.94
2022-08-26T19:24:17.404Z,99494.81
2022-08-26T19:26:51.406Z,99497.28
2022-08-26T19:29:30.106Z,99493.50
2022-08-26T19:31:58.754Z,99498.53
2022-08-26T19:34:26.631Z,99503.69
2022-08-26T19:36:54.653Z,99497.63
2022-08-26T19:39:22.524Z,99498.53
2022-08-26T19:41:50.161Z,99493.97
2022-08-26T19:44:39.467Z,99492.47
2022-08-26T19:47:09.793Z,99494.13
2022-08-26T19:49:38.285Z,99493.84
2022-08-26T19:52:06.438Z,99497.03
2022-08-26T19:54:35.332Z,99497.50
2022-08-26T19:57:03.307Z,99500.72
2022-08-26T19:59:33.004Z,99505.00
2022-08-26T20:02:01.945Z,99498.59
2022-08-26T20:04:33.613Z,99508.81
2022-08-26T20:07:02.831Z,99497.06
2022-08-26T20:09:34.213Z,99513.56
2022-08-26T20:12:05.207Z,99514.47
2022-08-26T20:14:35.131Z,99506.84
2022-08-26T20:17:05.473Z,99513.44
2022-08-26T20:19:52.241Z,99513.56
2022-08-26T20:22:21.294Z,99509.72
2022-08-26T20:24:49.463Z,99512.19
2022-08-26T20:27:16.947Z,99506.84
2022-08-26T20:29:44.670Z,99505.31
2022-08-26T20:32:12.634Z,99504.41
2022-08-26T20:34:40.322Z,99504.84
2022-08-26T20:37:08.532Z,99497.41
2022-08-26T20:39:36.511Z,99499.69
2022-08-26T20:42:06.654Z,99499.81
2022-08-26T20:44:54.483Z,99501.34
2022-08-26T20:47:23.229Z,99508.06
2022-08-26T20:49:52.523Z,99505.31
2022-08-26T20:52:20.897Z,99501.50
2022-08-26T20:54:48.375Z,99503.34
2022-08-26T20:57:16.127Z,99507.78
2022-08-26T20:59:43.772Z,99507.47
2022-08-26T21:02:11.318Z,99520.13
2022-08-26T21:04:39.111Z,99517.09
2022-08-26T21:07:06.733Z,99514.34
2022-08-26T21:09:34.211Z,99511.88
2022-08-26T21:12:02.572Z,99512.97
2022-08-26T21:14:30.096Z,99511.72
2022-08-26T21:16:58.544Z,99510.22
2022-08-26T21:19:26.733Z,99518.47
2022-08-26T21:21:54.303Z,99518.47
2022-08-26T21:24:22.073Z,99519.38
2022-08-26T21:26:49.907Z,99517.09
2022-08-26T21:29:17.489Z,99514.78
2022-08-26T21:31:46.759Z,99518.00
2022-08-26T21:34:18.563Z,99522.56
2022-08-26T21:36:47.969Z,99521.50
2022-08-26T21:39:16.539Z,99523.31
2022-08-26T21:41:46.076Z,99531.25
2022-08-26T21:44:16.078Z,99530.19
2022-08-26T21:46:45.935Z,99533.84
2022-08-26T21:49:18.635Z,99531.56
2022-08-26T21:51:48.941Z,99530.00
2022-08-26T21:54:18.186Z,99530.00
2022-08-26T21:56:47.358Z,99529.72
2022-08-26T21:59:18.699Z,99526.38
2022-08-26T22:01:47.115Z,99529.72
2022-08-26T22:04:15.038Z,99531.78
2022-08-26T22:06:46.990Z,99535.75
2022-08-26T22:09:19.524Z,99535.13
2022-08-26T22:11:47.769Z,99547.16
2022-08-26T22:14:17.579Z,99535.88
2022-08-26T22:16:50.162Z,99533.59
2022-08-26T22:19:21.204Z,99525.06
2022-08-26T22:21:54.484Z,99527.78
2022-08-26T22:24:25.337Z,99526.28
2022-08-26T22:26:54.105Z,99523.22
2022-08-26T22:29:22.742Z,99521.69
2022-08-26T22:31:50.630Z,99521.41
2022-08-26T22:34:21.101Z,99523.81
2022-08-26T22:36:50.419Z,99523.81
2022-08-26T22:39:23.522Z,99526.69
2022-08-26T22:41:53.735Z,99520.00
2022-08-26T22:44:22.301Z,99522.28
2022-08-26T22:46:54.212Z,99523.19
2022-08-26T22:49:22.901Z,99513.75
2022-08-26T22:51:51.203Z,99511.94
2022-08-26T22:54:19.407Z,99515.91
2022-08-26T22:56:47.274Z,99513.97
2022-08-26T22:59:16.227Z,99503.44
2022-08-26T23:01:44.745Z,99512.66
2022-08-26T23:04:12.671Z,99508.06
2022-08-26T23:06:47.751Z,99507.31
2022-08-26T23:09:18.704Z,99512.97
2022-08-26T23:11:49.422Z,99516.59
2022-08-26T23:14:18.796Z,99515.25
2022-08-26T23:16:47.644Z,99513.25
2022-08-26T23:19:16.687Z,99512.19
2022-08-26T23:21:44.753Z,99512.34
2022-08-26T23:24:12.547Z,99509.91
2022-08-26T23:26:41.661Z,99503.81
2022-08-26T23:29:13.457Z,99505.63
2022-08-26T23:31:42.188Z,99499.84
2022-08-26T23:34:29.390Z,99505.03
2022-08-26T23:36:59.070Z,99511.44
2022-08-26T23:39:27.760Z,99499.22
2022-08-26T23:41:56.861Z,99503.19
2022-08-26T23:44:26.566Z,99497.25
2022-08-26T23:46:54.921Z,99504.09
2022-08-26T23:49:22.577Z,99503.66
2022-08-26T23:52:09.205Z,99505.94
2022-08-26T23:54:38.069Z,99500.91
2022-08-26T23:57:07.357Z,99497.09
2022-08-26T23:59:36.421Z,99506.25
